sensor_id;sensor_type;location;lat;lon;timestamp;P1;durP1;ratioP1;P2;durP2;ratioP2
61336;SDS011;47212;41.326;2.104;2023-12-29T00:05:05;7.22;;;4.90;;
61336;SDS011;47212;41.326;2.104;2023-12-29T00:10:28;7.72;;;4.93;;
61336;SDS011;47212;41.326;2.104;2023-12-29T00:15:37;7.82;;;5.03;;
61336;SDS011;47212;41.326;2.104;2023-12-29T00:20:48;6.95;;;4.57;;
61336;SDS011;47212;41.326;2.104;2023-12-29T00:26:10;8.30;;;4.60;;
61336;SDS011;47212;41.326;2.104;2023-12-29T00:31:19;8.82;;;5.30;;
61336;SDS011;47212;41.326;2.104;2023-12-29T00:36:32;6.97;;;4.88;;
61336;SDS011;47212;41.326;2.104;2023-12-29T00:41:41;7.75;;;4.93;;
61336;SDS011;47212;41.326;2.104;2023-12-29T00:46:45;10.40;;;4.95;;
61336;SDS011;47212;41.326;2.104;2023-12-29T00:51:57;8.10;;;5.03;;
61336;SDS011;47212;41.326;2.104;2023-12-29T00:57:10;11.45;;;5.90;;
61336;SDS011;47212;41.326;2.104;2023-12-29T01:02:18;7.28;;;4.90;;
61336;SDS011;47212;41.326;2.104;2023-12-29T01:07:25;9.45;;;4.90;;
61336;SDS011;47212;41.326;2.104;2023-12-29T01:12:31;9.90;;;4.85;;
61336;SDS011;47212;41.326;2.104;2023-12-29T01:22:54;7.90;;;4.53;;
61336;SDS011;47212;41.326;2.104;2023-12-29T01:28:06;8.27;;;4.30;;
61336;SDS011;47212;41.326;2.104;2023-12-29T01:33:12;9.20;;;4.30;;
61336;SDS011;47212;41.326;2.104;2023-12-29T01:38:22;6.68;;;4.32;;
61336;SDS011;47212;41.326;2.104;2023-12-29T01:49:34;7.97;;;4.80;;
61336;SDS011;47212;41.326;2.104;2023-12-29T01:54:43;10.63;;;4.97;;
61336;SDS011;47212;41.326;2.104;2023-12-29T01:59:51;10.45;;;5.68;;
61336;SDS011;47212;41.326;2.104;2023-12-29T02:05:00;10.80;;;5.32;;
61336;SDS011;47212;41.326;2.104;2023-12-29T02:10:08;9.55;;;5.05;;
61336;SDS011;47212;41.326;2.104;2023-12-29T02:15:44;8.55;;;5.50;;
61336;SDS011;47212;41.326;2.104;2023-12-29T02:22:05;8.32;;;5.25;;
61336;SDS011;47212;41.326;2.104;2023-12-29T02:27:27;9.02;;;5.07;;
61336;SDS011;47212;41.326;2.104;2023-12-29T02:32:59;8.35;;;5.22;;
61336;SDS011;47212;41.326;2.104;2023-12-29T02:38:13;8.05;;;4.80;;
61336;SDS011;47212;41.326;2.104;2023-12-29T02:43:34;7.35;;;4.47;;
61336;SDS011;47212;41.326;2.104;2023-12-29T02:48:45;7.53;;;4.60;;
61336;SDS011;47212;41.326;2.104;2023-12-29T02:53:56;7.40;;;4.90;;
61336;SDS011;47212;41.326;2.104;2023-12-29T02:59:08;6.60;;;4.22;;
61336;SDS011;47212;41.326;2.104;2023-12-29T03:04:23;7.93;;;4.82;;
61336;SDS011;47212;41.326;2.104;2023-12-29T03:09:34;10.00;;;5.60;;
61336;SDS011;47212;41.326;2.104;2023-12-29T03:14:44;7.47;;;4.72;;
61336;SDS011;47212;41.326;2.104;2023-12-29T03:20:02;6.80;;;4.85;;
61336;SDS011;47212;41.326;2.104;2023-12-29T03:25:31;9.15;;;5.55;;
61336;SDS011;47212;41.326;2.104;2023-12-29T03:30:45;10.32;;;5.70;;
61336;SDS011;47212;41.326;2.104;2023-12-29T03:35:56;8.70;;;4.45;;
61336;SDS011;47212;41.326;2.104;2023-12-29T03:41:07;8.80;;;5.53;;
61336;SDS011;47212;41.326;2.104;2023-12-29T03:46:20;8.85;;;5.80;;
61336;SDS011;47212;41.326;2.104;2023-12-29T03:51:33;11.38;;;5.90;;
61336;SDS011;47212;41.326;2.104;2023-12-29T03:56:46;7.20;;;4.70;;
61336;SDS011;47212;41.326;2.104;2023-12-29T04:01:54;9.07;;;4.93;;
61336;SDS011;47212;41.326;2.104;2023-12-29T04:07:05;8.57;;;4.38;;
61336;SDS011;47212;41.326;2.104;2023-12-29T04:12:12;6.22;;;4.78;;
61336;SDS011;47212;41.326;2.104;2023-12-29T04:17:16;6.25;;;4.13;;
61336;SDS011;47212;41.326;2.104;2023-12-29T04:28:05;8.10;;;4.45;;
61336;SDS011;47212;41.326;2.104;2023-12-29T04:33:30;7.25;;;4.30;;
61336;SDS011;47212;41.326;2.104;2023-12-29T04:38:35;6.18;;;4.38;;
61336;SDS011;47212;41.326;2.104;2023-12-29T04:43:42;7.43;;;4.28;;
61336;SDS011;47212;41.326;2.104;2023-12-29T04:48:50;5.82;;;4.30;;
61336;SDS011;47212;41.326;2.104;2023-12-29T04:54:00;7.32;;;4.25;;
61336;SDS011;47212;41.326;2.104;2023-12-29T04:59:04;7.00;;;4.32;;
61336;SDS011;47212;41.326;2.104;2023-12-29T05:04:13;8.40;;;5.35;;
61336;SDS011;47212;41.326;2.104;2023-12-29T05:09:16;6.78;;;4.20;;
61336;SDS011;47212;41.326;2.104;2023-12-29T05:14:19;6.75;;;3.70;;
61336;SDS011;47212;41.326;2.104;2023-12-29T05:19:21;5.15;;;3.53;;
61336;SDS011;47212;41.326;2.104;2023-12-29T05:29:26;5.13;;;3.47;;
61336;SDS011;47212;41.326;2.104;2023-12-29T05:34:31;6.65;;;4.35;;
61336;SDS011;47212;41.326;2.104;2023-12-29T05:39:34;4.93;;;3.72;;
61336;SDS011;47212;41.326;2.104;2023-12-29T05:44:37;6.57;;;3.97;;
61336;SDS011;47212;41.326;2.104;2023-12-29T05:49:39;7.57;;;4.22;;
61336;SDS011;47212;41.326;2.104;2023-12-29T05:54:44;7.13;;;4.65;;
61336;SDS011;47212;41.326;2.104;2023-12-29T05:59:48;5.90;;;4.15;;
61336;SDS011;47212;41.326;2.104;2023-12-29T06:04:50;8.50;;;4.57;;
61336;SDS011;47212;41.326;2.104;2023-12-29T06:09:54;5.93;;;3.85;;
61336;SDS011;47212;41.326;2.104;2023-12-29T06:14:57;6.70;;;3.58;;
61336;SDS011;47212;41.326;2.104;2023-12-29T06:20:08;5.65;;;4.10;;
61336;SDS011;47212;41.326;2.104;2023-12-29T06:25:12;6.05;;;3.97;;
61336;SDS011;47212;41.326;2.104;2023-12-29T06:30:15;7.03;;;4.35;;
61336;SDS011;47212;41.326;2.104;2023-12-29T06:35:17;11.90;;;4.47;;
61336;SDS011;47212;41.326;2.104;2023-12-29T06:40:19;7.00;;;4.55;;
61336;SDS011;47212;41.326;2.104;2023-12-29T06:45:29;5.57;;;3.25;;
61336;SDS011;47212;41.326;2.104;2023-12-29T06:55:34;7.03;;;3.58;;
61336;SDS011;47212;41.326;2.104;2023-12-29T07:00:37;6.18;;;3.80;;
61336;SDS011;47212;41.326;2.104;2023-12-29T07:05:45;6.40;;;4.38;;
61336;SDS011;47212;41.326;2.104;2023-12-29T07:15:52;6.32;;;4.00;;
61336;SDS011;47212;41.326;2.104;2023-12-29T07:20:55;7.97;;;4.40;;
61336;SDS011;47212;41.326;2.104;2023-12-29T07:25:58;7.10;;;4.05;;
61336;SDS011;47212;41.326;2.104;2023-12-29T07:31:00;9.32;;;5.10;;
61336;SDS011;47212;41.326;2.104;2023-12-29T07:36:03;7.75;;;4.85;;
61336;SDS011;47212;41.326;2.104;2023-12-29T07:46:08;8.15;;;4.88;;
61336;SDS011;47212;41.326;2.104;2023-12-29T07:56:13;7.10;;;4.60;;
61336;SDS011;47212;41.326;2.104;2023-12-29T08:06:20;7.93;;;4.68;;
61336;SDS011;47212;41.326;2.104;2023-12-29T08:11:32;6.97;;;4.70;;
61336;SDS011;47212;41.326;2.104;2023-12-29T08:16:38;9.10;;;5.50;;
61336;SDS011;47212;41.326;2.104;2023-12-29T08:21:44;9.38;;;5.32;;
61336;SDS011;47212;41.326;2.104;2023-12-29T08:31:52;5.82;;;3.90;;
61336;SDS011;47212;41.326;2.104;2023-12-29T08:42:02;8.05;;;4.80;;
61336;SDS011;47212;41.326;2.104;2023-12-29T08:47:05;6.88;;;4.35;;
61336;SDS011;47212;41.326;2.104;2023-12-29T08:52:10;6.40;;;4.30;;
61336;SDS011;47212;41.326;2.104;2023-12-29T08:57:15;10.88;;;4.55;;
61336;SDS011;47212;41.326;2.104;2023-12-29T09:02:21;9.43;;;4.75;;
61336;SDS011;47212;41.326;2.104;2023-12-29T09:07:27;9.05;;;5.45;;
61336;SDS011;47212;41.326;2.104;2023-12-29T09:12:30;10.18;;;5.97;;
61336;SDS011;47212;41.326;2.104;2023-12-29T09:17:39;9.50;;;5.45;;
61336;SDS011;47212;41.326;2.104;2023-12-29T09:22:42;9.48;;;5.75;;
61336;SDS011;47212;41.326;2.104;2023-12-29T09:27:44;10.75;;;5.90;;
61336;SDS011;47212;41.326;2.104;2023-12-29T09:32:51;9.05;;;5.20;;
61336;SDS011;47212;41.326;2.104;2023-12-29T09:37:58;14.93;;;6.97;;
61336;SDS011;47212;41.326;2.104;2023-12-29T09:43:02;13.02;;;7.40;;
61336;SDS011;47212;41.326;2.104;2023-12-29T09:48:08;10.52;;;6.25;;
61336;SDS011;47212;41.326;2.104;2023-12-29T09:53:36;12.02;;;5.72;;
61336;SDS011;47212;41.326;2.104;2023-12-29T09:58:41;8.10;;;5.05;;
61336;SDS011;47212;41.326;2.104;2023-12-29T10:03:49;9.95;;;5.82;;
61336;SDS011;47212;41.326;2.104;2023-12-29T10:08:52;9.38;;;5.93;;
61336;SDS011;47212;41.326;2.104;2023-12-29T10:13:55;12.70;;;5.72;;
61336;SDS011;47212;41.326;2.104;2023-12-29T10:24:27;13.77;;;5.80;;
61336;SDS011;47212;41.326;2.104;2023-12-29T10:29:30;8.32;;;4.82;;
61336;SDS011;47212;41.326;2.104;2023-12-29T10:34:34;9.85;;;5.40;;
61336;SDS011;47212;41.326;2.104;2023-12-29T10:40:07;8.52;;;5.32;;
61336;SDS011;47212;41.326;2.104;2023-12-29T10:45:10;10.63;;;5.93;;
61336;SDS011;47212;41.326;2.104;2023-12-29T10:50:22;12.27;;;6.43;;
61336;SDS011;47212;41.326;2.104;2023-12-29T10:55:31;9.60;;;6.65;;
61336;SDS011;47212;41.326;2.104;2023-12-29T11:00:34;10.35;;;6.60;;
61336;SDS011;47212;41.326;2.104;2023-12-29T11:05:40;14.27;;;7.57;;
61336;SDS011;47212;41.326;2.104;2023-12-29T11:10:43;13.95;;;7.22;;
61336;SDS011;47212;41.326;2.104;2023-12-29T11:15:48;12.35;;;7.97;;
61336;SDS011;47212;41.326;2.104;2023-12-29T11:20:54;16.70;;;8.35;;
61336;SDS011;47212;41.326;2.104;2023-12-29T11:25:58;13.40;;;7.50;;
61336;SDS011;47212;41.326;2.104;2023-12-29T11:31:01;14.88;;;7.55;;
61336;SDS011;47212;41.326;2.104;2023-12-29T11:36:11;11.77;;;6.63;;
61336;SDS011;47212;41.326;2.104;2023-12-29T11:41:47;9.02;;;6.05;;
61336;SDS011;47212;41.326;2.104;2023-12-29T11:47:04;9.00;;;6.00;;
61336;SDS011;47212;41.326;2.104;2023-12-29T11:52:12;9.60;;;5.82;;
61336;SDS011;47212;41.326;2.104;2023-12-29T11:57:38;9.43;;;5.78;;
61336;SDS011;47212;41.326;2.104;2023-12-29T12:02:45;11.13;;;6.15;;
61336;SDS011;47212;41.326;2.104;2023-12-29T12:07:57;11.23;;;6.32;;
61336;SDS011;47212;41.326;2.104;2023-12-29T12:13:01;10.73;;;5.82;;
61336;SDS011;47212;41.326;2.104;2023-12-29T12:18:10;15.13;;;6.82;;
61336;SDS011;47212;41.326;2.104;2023-12-29T12:23:21;14.38;;;8.38;;
61336;SDS011;47212;41.326;2.104;2023-12-29T12:28:28;14.07;;;8.65;;
61336;SDS011;47212;41.326;2.104;2023-12-29T12:33:31;13.98;;;8.73;;
61336;SDS011;47212;41.326;2.104;2023-12-29T12:38:34;20.02;;;7.85;;
61336;SDS011;47212;41.326;2.104;2023-12-29T12:43:37;14.73;;;9.45;;
61336;SDS011;47212;41.326;2.104;2023-12-29T12:48:50;12.77;;;8.88;;
61336;SDS011;47212;41.326;2.104;2023-12-29T12:53:53;12.80;;;9.30;;
61336;SDS011;47212;41.326;2.104;2023-12-29T12:58:56;16.48;;;9.48;;
61336;SDS011;47212;41.326;2.104;2023-12-29T13:04:00;14.77;;;9.82;;
61336;SDS011;47212;41.326;2.104;2023-12-29T13:09:03;16.70;;;10.55;;
61336;SDS011;47212;41.326;2.104;2023-12-29T13:14:21;12.13;;;9.52;;
61336;SDS011;47212;41.326;2.104;2023-12-29T13:19:27;16.75;;;9.57;;
61336;SDS011;47212;41.326;2.104;2023-12-29T13:24:29;15.55;;;9.70;;
61336;SDS011;47212;41.326;2.104;2023-12-29T13:29:32;13.70;;;10.63;;
61336;SDS011;47212;41.326;2.104;2023-12-29T13:34:39;16.98;;;12.10;;
61336;SDS011;47212;41.326;2.104;2023-12-29T13:40:28;17.02;;;10.13;;
61336;SDS011;47212;41.326;2.104;2023-12-29T13:45:36;15.65;;;9.25;;
61336;SDS011;47212;41.326;2.104;2023-12-29T13:50:47;11.10;;;7.22;;
61336;SDS011;47212;41.326;2.104;2023-12-29T13:55:54;15.63;;;9.90;;
61336;SDS011;47212;41.326;2.104;2023-12-29T14:01:07;14.27;;;9.27;;
61336;SDS011;47212;41.326;2.104;2023-12-29T14:06:12;13.93;;;8.05;;
61336;SDS011;47212;41.326;2.104;2023-12-29T14:11:25;11.55;;;8.18;;
61336;SDS011;47212;41.326;2.104;2023-12-29T14:16:28;20.30;;;11.13;;
61336;SDS011;47212;41.326;2.104;2023-12-29T14:21:31;10.43;;;8.05;;
61336;SDS011;47212;41.326;2.104;2023-12-29T14:26:38;14.40;;;9.75;;
61336;SDS011;47212;41.326;2.104;2023-12-29T14:31:46;8.95;;;6.68;;
61336;SDS011;47212;41.326;2.104;2023-12-29T14:36:54;9.77;;;7.60;;
61336;SDS011;47212;41.326;2.104;2023-12-29T14:41:57;11.07;;;8.13;;
61336;SDS011;47212;41.326;2.104;2023-12-29T14:52:01;8.50;;;6.32;;
61336;SDS011;47212;41.326;2.104;2023-12-29T14:57:06;11.45;;;7.63;;
61336;SDS011;47212;41.326;2.104;2023-12-29T15:02:16;9.82;;;6.88;;
61336;SDS011;47212;41.326;2.104;2023-12-29T15:07:19;12.82;;;8.52;;
61336;SDS011;47212;41.326;2.104;2023-12-29T15:12:24;11.13;;;8.13;;
61336;SDS011;47212;41.326;2.104;2023-12-29T15:17:26;11.15;;;7.97;;
61336;SDS011;47212;41.326;2.104;2023-12-29T15:22:28;13.85;;;8.20;;
61336;SDS011;47212;41.326;2.104;2023-12-29T15:27:31;16.02;;;9.45;;
61336;SDS011;47212;41.326;2.104;2023-12-29T15:32:34;13.02;;;8.93;;
61336;SDS011;47212;41.326;2.104;2023-12-29T15:37:37;16.23;;;8.73;;
61336;SDS011;47212;41.326;2.104;2023-12-29T15:42:45;11.10;;;7.35;;
61336;SDS011;47212;41.326;2.104;2023-12-29T15:47:48;13.65;;;7.85;;
61336;SDS011;47212;41.326;2.104;2023-12-29T15:52:51;11.93;;;7.20;;
61336;SDS011;47212;41.326;2.104;2023-12-29T15:57:54;10.23;;;7.80;;
61336;SDS011;47212;41.326;2.104;2023-12-29T16:02:57;9.73;;;6.95;;
61336;SDS011;47212;41.326;2.104;2023-12-29T16:08:01;9.77;;;6.15;;
61336;SDS011;47212;41.326;2.104;2023-12-29T16:13:05;8.80;;;5.95;;
61336;SDS011;47212;41.326;2.104;2023-12-29T16:18:07;11.25;;;7.10;;
61336;SDS011;47212;41.326;2.104;2023-12-29T16:23:11;9.77;;;6.78;;
61336;SDS011;47212;41.326;2.104;2023-12-29T16:28:13;9.93;;;7.05;;
61336;SDS011;47212;41.326;2.104;2023-12-29T16:38:18;7.20;;;5.47;;
61336;SDS011;47212;41.326;2.104;2023-12-29T16:43:23;11.85;;;7.50;;
61336;SDS011;47212;41.326;2.104;2023-12-29T16:48:26;11.18;;;7.68;;
61336;SDS011;47212;41.326;2.104;2023-12-29T16:53:30;15.65;;;9.32;;
61336;SDS011;47212;41.326;2.104;2023-12-29T16:58:36;12.10;;;7.60;;
61336;SDS011;47212;41.326;2.104;2023-12-29T17:03:44;11.32;;;7.15;;
61336;SDS011;47212;41.326;2.104;2023-12-29T17:08:47;10.38;;;6.57;;
61336;SDS011;47212;41.326;2.104;2023-12-29T17:13:50;9.23;;;6.88;;
61336;SDS011;47212;41.326;2.104;2023-12-29T17:18:52;11.38;;;8.10;;
61336;SDS011;47212;41.326;2.104;2023-12-29T17:23:55;9.75;;;7.10;;
61336;SDS011;47212;41.326;2.104;2023-12-29T17:28:58;9.23;;;6.68;;
61336;SDS011;47212;41.326;2.104;2023-12-29T17:34:00;10.45;;;6.90;;
61336;SDS011;47212;41.326;2.104;2023-12-29T17:39:02;9.73;;;7.00;;
61336;SDS011;47212;41.326;2.104;2023-12-29T17:44:05;10.00;;;6.63;;
61336;SDS011;47212;41.326;2.104;2023-12-29T17:49:07;9.05;;;6.63;;
61336;SDS011;47212;41.326;2.104;2023-12-29T17:54:10;9.45;;;6.82;;
61336;SDS011;47212;41.326;2.104;2023-12-29T18:04:14;8.80;;;5.60;;
61336;SDS011;47212;41.326;2.104;2023-12-29T18:09:17;10.23;;;7.20;;
61336;SDS011;47212;41.326;2.104;2023-12-29T18:14:19;7.65;;;6.00;;
61336;SDS011;47212;41.326;2.104;2023-12-29T18:24:25;8.65;;;5.75;;
61336;SDS011;47212;41.326;2.104;2023-12-29T18:29:28;9.27;;;7.03;;
61336;SDS011;47212;41.326;2.104;2023-12-29T18:34:35;11.30;;;8.15;;
61336;SDS011;47212;41.326;2.104;2023-12-29T18:39:40;10.50;;;7.97;;
61336;SDS011;47212;41.326;2.104;2023-12-29T18:44:44;9.95;;;7.30;;
61336;SDS011;47212;41.326;2.104;2023-12-29T18:49:47;10.07;;;7.85;;
61336;SDS011;47212;41.326;2.104;2023-12-29T18:54:51;10.52;;;7.88;;
61336;SDS011;47212;41.326;2.104;2023-12-29T18:59:56;10.65;;;7.60;;
61336;SDS011;47212;41.326;2.104;2023-12-29T19:04:59;10.10;;;7.25;;
61336;SDS011;47212;41.326;2.104;2023-12-29T19:10:02;11.05;;;7.70;;
61336;SDS011;47212;41.326;2.104;2023-12-29T19:15:05;10.45;;;7.70;;
61336;SDS011;47212;41.326;2.104;2023-12-29T19:20:11;12.25;;;7.95;;
61336;SDS011;47212;41.326;2.104;2023-12-29T19:25:13;14.63;;;8.75;;
61336;SDS011;47212;41.326;2.104;2023-12-29T19:30:17;16.35;;;10.77;;
61336;SDS011;47212;41.326;2.104;2023-12-29T19:35:20;14.23;;;10.75;;
61336;SDS011;47212;41.326;2.104;2023-12-29T19:40:22;17.77;;;12.27;;
61336;SDS011;47212;41.326;2.104;2023-12-29T19:50:28;16.60;;;11.25;;
61336;SDS011;47212;41.326;2.104;2023-12-29T19:55:35;20.60;;;12.30;;
61336;SDS011;47212;41.326;2.104;2023-12-29T20:00:39;20.85;;;12.60;;
61336;SDS011;47212;41.326;2.104;2023-12-29T20:10:44;16.02;;;8.93;;
61336;SDS011;47212;41.326;2.104;2023-12-29T20:20:49;14.93;;;7.18;;
61336;SDS011;47212;41.326;2.104;2023-12-29T20:25:54;16.15;;;9.48;;
61336;SDS011;47212;41.326;2.104;2023-12-29T20:31:00;15.57;;;9.65;;
61336;SDS011;47212;41.326;2.104;2023-12-29T20:36:02;17.88;;;9.85;;
61336;SDS011;47212;41.326;2.104;2023-12-29T20:41:04;14.60;;;9.45;;
61336;SDS011;47212;41.326;2.104;2023-12-29T20:51:09;18.90;;;9.35;;
61336;SDS011;47212;41.326;2.104;2023-12-29T20:56:18;16.35;;;10.13;;
61336;SDS011;47212;41.326;2.104;2023-12-29T21:01:21;18.20;;;9.90;;
61336;SDS011;47212;41.326;2.104;2023-12-29T21:06:23;15.98;;;10.43;;
61336;SDS011;47212;41.326;2.104;2023-12-29T21:11:28;20.45;;;10.73;;
61336;SDS011;47212;41.326;2.104;2023-12-29T21:16:35;15.93;;;9.52;;
61336;SDS011;47212;41.326;2.104;2023-12-29T21:21:38;18.13;;;10.23;;
61336;SDS011;47212;41.326;2.104;2023-12-29T21:26:40;15.25;;;10.43;;
61336;SDS011;47212;41.326;2.104;2023-12-29T21:31:43;15.60;;;9.13;;
61336;SDS011;47212;41.326;2.104;2023-12-29T21:36:46;16.73;;;10.02;;
61336;SDS011;47212;41.326;2.104;2023-12-29T21:51:54;12.70;;;6.90;;
61336;SDS011;47212;41.326;2.104;2023-12-29T21:56:58;21.02;;;9.63;;
61336;SDS011;47212;41.326;2.104;2023-12-29T22:02:01;17.73;;;10.65;;
61336;SDS011;47212;41.326;2.104;2023-12-29T22:07:05;16.65;;;10.77;;
61336;SDS011;47212;41.326;2.104;2023-12-29T22:12:08;16.15;;;9.32;;
61336;SDS011;47212;41.326;2.104;2023-12-29T22:17:12;15.00;;;9.30;;
61336;SDS011;47212;41.326;2.104;2023-12-29T22:22:20;18.25;;;10.10;;
61336;SDS011;47212;41.326;2.104;2023-12-29T22:32:26;12.73;;;8.18;;
61336;SDS011;47212;41.326;2.104;2023-12-29T22:37:37;12.30;;;8.85;;
61336;SDS011;47212;41.326;2.104;2023-12-29T22:42:39;16.00;;;8.70;;
61336;SDS011;47212;41.326;2.104;2023-12-29T22:47:44;17.58;;;10.35;;
61336;SDS011;47212;41.326;2.104;2023-12-29T22:57:48;11.40;;;8.37;;
61336;SDS011;47212;41.326;2.104;2023-12-29T23:02:52;12.18;;;7.85;;
61336;SDS011;47212;41.326;2.104;2023-12-29T23:13:23;11.15;;;7.45;;
61336;SDS011;47212;41.326;2.104;2023-12-29T23:18:27;13.10;;;8.68;;
61336;SDS011;47212;41.326;2.104;2023-12-29T23:23:29;15.43;;;9.77;;
61336;SDS011;47212;41.326;2.104;2023-12-29T23:28:32;22.25;;;10.90;;
61336;SDS011;47212;41.326;2.104;2023-12-29T23:33:37;14.55;;;9.65;;
61336;SDS011;47212;41.326;2.104;2023-12-29T23:38:39;14.75;;;10.23;;
61336;SDS011;47212;41.326;2.104;2023-12-29T23:43:41;15.10;;;9.77;;
61336;SDS011;47212;41.326;2.104;2023-12-29T23:48:50;16.60;;;9.65;;
61336;SDS011;47212;41.326;2.104;2023-12-29T23:58:54;14.87;;;8.30;;
